Glover, North Dakota
Current Conditions -  °F | °C
As of 2:15 PM on Monday 26 Jan 2015 (Local Time) from KGWR Reporting Station
Clear Clear  
Wind Chill: 36°   Ceiling: Unl
Heat Index: 45°   Visibility: 10mi
Dew Point: 36°   Wind: 22mph
Humidity: 71%   Direction: 340°NNW
Pressure: 29.89"   Gusts: 25mph
Location:  46.1099°N, 98.1335°W
Report Text: KGWR 262015Z AUTO 34019G22KT 10SM CLR 07/02 A2989 RMK A01 P000
Loading
Personal Weather Stations






























Interactive Weather Map New forecast layout! Learn more

10-Day Weather Forecast

Advertisements
Track Severe Weather on mobile